sensor_id;sensor_type;location;lat;lon;timestamp;P1;durP1;ratioP1;P2;durP2;ratioP2
8293;SDS011;4185;41.506;24.938;2022-07-23T00:00:09;5.83;;;5.20;;
8293;SDS011;4185;41.506;24.938;2022-07-23T00:02:36;8.83;;;6.33;;
8293;SDS011;4185;41.506;24.938;2022-07-23T00:05:04;6.77;;;5.97;;
8293;SDS011;4185;41.506;24.938;2022-07-23T00:07:31;7.00;;;6.20;;
8293;SDS011;4185;41.506;24.938;2022-07-23T00:09:57;7.60;;;6.27;;
8293;SDS011;4185;41.506;24.938;2022-07-23T00:12:24;6.80;;;6.03;;
8293;SDS011;4185;41.506;24.938;2022-07-23T00:14:53;7.53;;;6.00;;
8293;SDS011;4185;41.506;24.938;2022-07-23T00:17:20;6.40;;;5.73;;
8293;SDS011;4185;41.506;24.938;2022-07-23T00:19:47;7.73;;;5.63;;
8293;SDS011;4185;41.506;24.938;2022-07-23T00:22:13;6.77;;;6.07;;
8293;SDS011;4185;41.506;24.938;2022-07-23T00:24:40;6.77;;;6.03;;
8293;SDS011;4185;41.506;24.938;2022-07-23T00:27:07;6.63;;;5.97;;
8293;SDS011;4185;41.506;24.938;2022-07-23T00:29:34;8.03;;;6.00;;
8293;SDS011;4185;41.506;24.938;2022-07-23T00:32:02;9.50;;;5.90;;
8293;SDS011;4185;41.506;24.938;2022-07-23T00:34:29;8.03;;;6.30;;
8293;SDS011;4185;41.506;24.938;2022-07-23T00:36:56;7.33;;;6.53;;
8293;SDS011;4185;41.506;24.938;2022-07-23T00:39:23;6.13;;;5.63;;
8293;SDS011;4185;41.506;24.938;2022-07-23T00:41:50;8.07;;;6.53;;
8293;SDS011;4185;41.506;24.938;2022-07-23T00:44:18;9.40;;;6.40;;
8293;SDS011;4185;41.506;24.938;2022-07-23T00:46:47;7.10;;;6.40;;
8293;SDS011;4185;41.506;24.938;2022-07-23T00:49:19;9.33;;;5.77;;
8293;SDS011;4185;41.506;24.938;2022-07-23T00:51:47;6.27;;;5.77;;
8293;SDS011;4185;41.506;24.938;2022-07-23T00:54:15;8.20;;;6.03;;
8293;SDS011;4185;41.506;24.938;2022-07-23T00:56:42;6.93;;;5.77;;
8293;SDS011;4185;41.506;24.938;2022-07-23T00:59:10;9.20;;;6.07;;
8293;SDS011;4185;41.506;24.938;2022-07-23T01:01:37;9.10;;;6.17;;
8293;SDS011;4185;41.506;24.938;2022-07-23T01:04:04;7.07;;;5.97;;
8293;SDS011;4185;41.506;24.938;2022-07-23T01:06:34;6.73;;;5.83;;
8293;SDS011;4185;41.506;24.938;2022-07-23T01:09:02;8.63;;;6.07;;
8293;SDS011;4185;41.506;24.938;2022-07-23T01:11:30;7.07;;;6.30;;
8293;SDS011;4185;41.506;24.938;2022-07-23T01:13:58;6.07;;;5.47;;
8293;SDS011;4185;41.506;24.938;2022-07-23T01:16:25;7.13;;;6.20;;
8293;SDS011;4185;41.506;24.938;2022-07-23T01:18:52;6.67;;;5.83;;
8293;SDS011;4185;41.506;24.938;2022-07-23T01:21:19;8.27;;;6.30;;
8293;SDS011;4185;41.506;24.938;2022-07-23T01:23:48;10.37;;;6.57;;
8293;SDS011;4185;41.506;24.938;2022-07-23T01:26:15;7.13;;;5.80;;
8293;SDS011;4185;41.506;24.938;2022-07-23T01:28:42;6.87;;;5.90;;
8293;SDS011;4185;41.506;24.938;2022-07-23T01:31:09;6.73;;;5.77;;
8293;SDS011;4185;41.506;24.938;2022-07-23T01:33:36;6.97;;;5.93;;
8293;SDS011;4185;41.506;24.938;2022-07-23T01:36:03;6.40;;;5.77;;
8293;SDS011;4185;41.506;24.938;2022-07-23T01:38:30;6.80;;;5.77;;
8293;SDS011;4185;41.506;24.938;2022-07-23T01:40:59;6.83;;;6.20;;
8293;SDS011;4185;41.506;24.938;2022-07-23T01:43:25;10.13;;;6.27;;
8293;SDS011;4185;41.506;24.938;2022-07-23T01:45:52;7.77;;;6.50;;
8293;SDS011;4185;41.506;24.938;2022-07-23T01:48:19;8.03;;;5.87;;
8293;SDS011;4185;41.506;24.938;2022-07-23T01:50:46;8.23;;;6.63;;
8293;SDS011;4185;41.506;24.938;2022-07-23T01:53:13;7.23;;;6.23;;
8293;SDS011;4185;41.506;24.938;2022-07-23T01:55:40;7.87;;;6.10;;
8293;SDS011;4185;41.506;24.938;2022-07-23T01:58:09;7.90;;;6.43;;
8293;SDS011;4185;41.506;24.938;2022-07-23T02:00:36;8.77;;;7.87;;
8293;SDS011;4185;41.506;24.938;2022-07-23T02:03:03;8.07;;;6.43;;
8293;SDS011;4185;41.506;24.938;2022-07-23T02:05:29;7.93;;;6.80;;
8293;SDS011;4185;41.506;24.938;2022-07-23T02:07:57;10.63;;;7.90;;
8293;SDS011;4185;41.506;24.938;2022-07-23T02:10:24;7.93;;;6.67;;
8293;SDS011;4185;41.506;24.938;2022-07-23T02:12:51;9.03;;;7.00;;
8293;SDS011;4185;41.506;24.938;2022-07-23T02:15:19;7.97;;;7.07;;
8293;SDS011;4185;41.506;24.938;2022-07-23T02:17:46;7.83;;;6.90;;
8293;SDS011;4185;41.506;24.938;2022-07-23T02:20:13;9.00;;;7.10;;
8293;SDS011;4185;41.506;24.938;2022-07-23T02:22:40;7.93;;;6.57;;
8293;SDS011;4185;41.506;24.938;2022-07-23T02:25:07;8.70;;;5.97;;
8293;SDS011;4185;41.506;24.938;2022-07-23T02:27:34;8.47;;;6.53;;
8293;SDS011;4185;41.506;24.938;2022-07-23T02:30:02;7.90;;;7.10;;
8293;SDS011;4185;41.506;24.938;2022-07-23T02:32:32;7.77;;;5.90;;
8293;SDS011;4185;41.506;24.938;2022-07-23T02:34:59;7.33;;;6.50;;
8293;SDS011;4185;41.506;24.938;2022-07-23T02:37:25;6.57;;;5.83;;
8293;SDS011;4185;41.506;24.938;2022-07-23T02:39:52;7.47;;;6.53;;
8293;SDS011;4185;41.506;24.938;2022-07-23T02:42:20;7.20;;;6.50;;
8293;SDS011;4185;41.506;24.938;2022-07-23T02:44:48;9.40;;;6.33;;
8293;SDS011;4185;41.506;24.938;2022-07-23T02:47:15;7.00;;;6.13;;
8293;SDS011;4185;41.506;24.938;2022-07-23T02:49:44;8.57;;;6.63;;
8293;SDS011;4185;41.506;24.938;2022-07-23T02:52:10;10.67;;;6.20;;
8293;SDS011;4185;41.506;24.938;2022-07-23T02:54:37;8.80;;;6.80;;
8293;SDS011;4185;41.506;24.938;2022-07-23T02:57:04;9.30;;;6.30;;
8293;SDS011;4185;41.506;24.938;2022-07-23T02:59:31;6.97;;;6.27;;
8293;SDS011;4185;41.506;24.938;2022-07-23T03:01:58;7.53;;;6.40;;
8293;SDS011;4185;41.506;24.938;2022-07-23T03:04:25;9.13;;;6.40;;
8293;SDS011;4185;41.506;24.938;2022-07-23T03:06:53;8.57;;;6.23;;
8293;SDS011;4185;41.506;24.938;2022-07-23T03:09:20;8.47;;;6.17;;
8293;SDS011;4185;41.506;24.938;2022-07-23T03:11:46;9.33;;;6.47;;
8293;SDS011;4185;41.506;24.938;2022-07-23T03:14:13;7.83;;;5.73;;
8293;SDS011;4185;41.506;24.938;2022-07-23T03:16:41;7.67;;;6.57;;
8293;SDS011;4185;41.506;24.938;2022-07-23T03:19:08;8.47;;;5.73;;
8293;SDS011;4185;41.506;24.938;2022-07-23T03:21:35;9.07;;;6.47;;
8293;SDS011;4185;41.506;24.938;2022-07-23T03:24:06;8.10;;;5.80;;
8293;SDS011;4185;41.506;24.938;2022-07-23T03:26:33;7.90;;;6.50;;
8293;SDS011;4185;41.506;24.938;2022-07-23T03:29:00;6.90;;;6.20;;
8293;SDS011;4185;41.506;24.938;2022-07-23T03:31:28;8.73;;;6.60;;
8293;SDS011;4185;41.506;24.938;2022-07-23T03:33:56;7.70;;;6.87;;
8293;SDS011;4185;41.506;24.938;2022-07-23T03:36:23;6.37;;;5.70;;
8293;SDS011;4185;41.506;24.938;2022-07-23T03:38:50;6.67;;;5.97;;
8293;SDS011;4185;41.506;24.938;2022-07-23T03:41:18;7.63;;;5.73;;
8293;SDS011;4185;41.506;24.938;2022-07-23T03:43:45;6.80;;;6.13;;
8293;SDS011;4185;41.506;24.938;2022-07-23T03:46:12;6.73;;;6.03;;
8293;SDS011;4185;41.506;24.938;2022-07-23T03:48:39;8.83;;;6.40;;
8293;SDS011;4185;41.506;24.938;2022-07-23T03:51:06;7.67;;;6.70;;
8293;SDS011;4185;41.506;24.938;2022-07-23T03:53:33;10.50;;;6.33;;
8293;SDS011;4185;41.506;24.938;2022-07-23T03:56:00;8.13;;;6.80;;
8293;SDS011;4185;41.506;24.938;2022-07-23T03:58:28;8.23;;;7.07;;
8293;SDS011;4185;41.506;24.938;2022-07-23T04:00:55;8.80;;;7.30;;
8293;SDS011;4185;41.506;24.938;2022-07-23T04:03:22;8.27;;;6.93;;
8293;SDS011;4185;41.506;24.938;2022-07-23T04:05:48;9.17;;;7.17;;
8293;SDS011;4185;41.506;24.938;2022-07-23T04:08:15;7.00;;;6.20;;
8293;SDS011;4185;41.506;24.938;2022-07-23T04:10:42;7.23;;;6.53;;
8293;SDS011;4185;41.506;24.938;2022-07-23T04:13:09;6.97;;;6.27;;
8293;SDS011;4185;41.506;24.938;2022-07-23T04:15:38;8.17;;;6.67;;
8293;SDS011;4185;41.506;24.938;2022-07-23T04:18:05;8.97;;;6.40;;
8293;SDS011;4185;41.506;24.938;2022-07-23T04:20:33;6.37;;;5.70;;
8293;SDS011;4185;41.506;24.938;2022-07-23T04:23:00;7.40;;;6.30;;
8293;SDS011;4185;41.506;24.938;2022-07-23T04:25:26;8.00;;;6.70;;
8293;SDS011;4185;41.506;24.938;2022-07-23T04:27:53;7.10;;;6.27;;
8293;SDS011;4185;41.506;24.938;2022-07-23T04:30:20;10.37;;;7.37;;
8293;SDS011;4185;41.506;24.938;2022-07-23T04:32:48;11.63;;;7.27;;
8293;SDS011;4185;41.506;24.938;2022-07-23T04:35:15;9.43;;;7.10;;
8293;SDS011;4185;41.506;24.938;2022-07-23T04:37:42;9.40;;;6.93;;
8293;SDS011;4185;41.506;24.938;2022-07-23T04:40:09;10.53;;;6.83;;
8293;SDS011;4185;41.506;24.938;2022-07-23T04:42:37;8.40;;;6.70;;
8293;SDS011;4185;41.506;24.938;2022-07-23T04:45:04;9.77;;;6.60;;
8293;SDS011;4185;41.506;24.938;2022-07-23T04:47:32;10.07;;;6.53;;
8293;SDS011;4185;41.506;24.938;2022-07-23T04:50:00;7.00;;;6.30;;
8293;SDS011;4185;41.506;24.938;2022-07-23T04:52:27;6.83;;;6.13;;
8293;SDS011;4185;41.506;24.938;2022-07-23T04:54:53;9.03;;;6.43;;
8293;SDS011;4185;41.506;24.938;2022-07-23T04:57:20;7.23;;;6.27;;
8293;SDS011;4185;41.506;24.938;2022-07-23T04:59:47;10.23;;;6.53;;
8293;SDS011;4185;41.506;24.938;2022-07-23T05:02:14;10.17;;;6.80;;
8293;SDS011;4185;41.506;24.938;2022-07-23T05:04:41;8.43;;;6.40;;
8293;SDS011;4185;41.506;24.938;2022-07-23T05:07:09;7.70;;;6.50;;
8293;SDS011;4185;41.506;24.938;2022-07-23T05:09:36;11.20;;;7.00;;
8293;SDS011;4185;41.506;24.938;2022-07-23T05:12:03;12.47;;;7.00;;
8293;SDS011;4185;41.506;24.938;2022-07-23T05:14:30;8.53;;;6.83;;
8293;SDS011;4185;41.506;24.938;2022-07-23T05:16:57;10.13;;;6.73;;
8293;SDS011;4185;41.506;24.938;2022-07-23T05:19:24;11.67;;;6.53;;
8293;SDS011;4185;41.506;24.938;2022-07-23T05:21:51;7.80;;;7.00;;
8293;SDS011;4185;41.506;24.938;2022-07-23T05:24:19;12.07;;;8.00;;
8293;SDS011;4185;41.506;24.938;2022-07-23T05:26:46;12.83;;;7.47;;
8293;SDS011;4185;41.506;24.938;2022-07-23T05:29:13;12.87;;;7.27;;
8293;SDS011;4185;41.506;24.938;2022-07-23T05:31:40;9.63;;;7.23;;
8293;SDS011;4185;41.506;24.938;2022-07-23T05:34:07;7.50;;;6.70;;
8293;SDS011;4185;41.506;24.938;2022-07-23T05:36:33;7.60;;;6.77;;
8293;SDS011;4185;41.506;24.938;2022-07-23T05:39:00;226.00;;;19.83;;
8293;SDS011;4185;41.506;24.938;2022-07-23T05:41:31;226.87;;;19.00;;
8293;SDS011;4185;41.506;24.938;2022-07-23T05:43:57;114.33;;;13.50;;
8293;SDS011;4185;41.506;24.938;2022-07-23T05:46:24;53.37;;;10.20;;
8293;SDS011;4185;41.506;24.938;2022-07-23T05:48:51;19.00;;;8.23;;
8293;SDS011;4185;41.506;24.938;2022-07-23T05:51:21;23.07;;;8.10;;
8293;SDS011;4185;41.506;24.938;2022-07-23T05:53:49;83.60;;;13.40;;
8293;SDS011;4185;41.506;24.938;2022-07-23T05:56:16;89.00;;;13.20;;
8293;SDS011;4185;41.506;24.938;2022-07-23T05:58:45;54.50;;;12.77;;
8293;SDS011;4185;41.506;24.938;2022-07-23T06:01:11;26.77;;;8.80;;
8293;SDS011;4185;41.506;24.938;2022-07-23T06:03:38;27.57;;;9.40;;
8293;SDS011;4185;41.506;24.938;2022-07-23T06:06:05;20.60;;;8.83;;
8293;SDS011;4185;41.506;24.938;2022-07-23T06:08:33;22.43;;;8.00;;
8293;SDS011;4185;41.506;24.938;2022-07-23T06:10:59;16.97;;;7.93;;
8293;SDS011;4185;41.506;24.938;2022-07-23T06:13:26;13.33;;;7.27;;
8293;SDS011;4185;41.506;24.938;2022-07-23T06:15:54;13.53;;;7.63;;
8293;SDS011;4185;41.506;24.938;2022-07-23T06:18:21;10.77;;;7.20;;
8293;SDS011;4185;41.506;24.938;2022-07-23T06:20:48;10.27;;;6.80;;
8293;SDS011;4185;41.506;24.938;2022-07-23T06:23:15;20.03;;;8.03;;
8293;SDS011;4185;41.506;24.938;2022-07-23T06:25:42;8.80;;;6.80;;
8293;SDS011;4185;41.506;24.938;2022-07-23T06:28:09;10.90;;;6.90;;
8293;SDS011;4185;41.506;24.938;2022-07-23T06:30:36;9.70;;;6.80;;
8293;SDS011;4185;41.506;24.938;2022-07-23T06:33:04;13.43;;;6.93;;
8293;SDS011;4185;41.506;24.938;2022-07-23T06:35:31;7.57;;;6.57;;
8293;SDS011;4185;41.506;24.938;2022-07-23T06:37:59;12.23;;;7.47;;
8293;SDS011;4185;41.506;24.938;2022-07-23T06:40:26;8.90;;;6.57;;
8293;SDS011;4185;41.506;24.938;2022-07-23T06:42:53;8.33;;;6.73;;
8293;SDS011;4185;41.506;24.938;2022-07-23T06:45:20;13.10;;;7.10;;
8293;SDS011;4185;41.506;24.938;2022-07-23T06:47:47;7.87;;;6.33;;
8293;SDS011;4185;41.506;24.938;2022-07-23T06:50:15;7.20;;;5.60;;
8293;SDS011;4185;41.506;24.938;2022-07-23T06:52:42;9.10;;;5.33;;
8293;SDS011;4185;41.506;24.938;2022-07-23T06:55:09;10.13;;;5.40;;
8293;SDS011;4185;41.506;24.938;2022-07-23T06:57:36;5.83;;;5.23;;
8293;SDS011;4185;41.506;24.938;2022-07-23T07:00:03;6.70;;;5.40;;
8293;SDS011;4185;41.506;24.938;2022-07-23T07:02:30;10.10;;;4.90;;
8293;SDS011;4185;41.506;24.938;2022-07-23T07:04:57;7.90;;;5.47;;
8293;SDS011;4185;41.506;24.938;2022-07-23T07:07:26;8.27;;;5.30;;
8293;SDS011;4185;41.506;24.938;2022-07-23T07:09:53;10.47;;;5.20;;
8293;SDS011;4185;41.506;24.938;2022-07-23T07:12:20;6.37;;;5.60;;
8293;SDS011;4185;41.506;24.938;2022-07-23T07:14:46;11.03;;;6.10;;
8293;SDS011;4185;41.506;24.938;2022-07-23T07:17:13;7.07;;;5.27;;
8293;SDS011;4185;41.506;24.938;2022-07-23T07:19:40;9.70;;;5.10;;
8293;SDS011;4185;41.506;24.938;2022-07-23T07:22:07;6.63;;;5.10;;
8293;SDS011;4185;41.506;24.938;2022-07-23T07:24:35;7.23;;;4.90;;
8293;SDS011;4185;41.506;24.938;2022-07-23T07:27:02;5.33;;;4.77;;
8293;SDS011;4185;41.506;24.938;2022-07-23T07:29:29;8.10;;;5.33;;
8293;SDS011;4185;41.506;24.938;2022-07-23T07:31:56;8.27;;;5.40;;
8293;SDS011;4185;41.506;24.938;2022-07-23T07:34:23;7.07;;;5.20;;
8293;SDS011;4185;41.506;24.938;2022-07-23T07:36:50;6.23;;;5.10;;
8293;SDS011;4185;41.506;24.938;2022-07-23T07:39:17;7.33;;;5.43;;
8293;SDS011;4185;41.506;24.938;2022-07-23T07:41:45;7.03;;;5.33;;
8293;SDS011;4185;41.506;24.938;2022-07-23T07:44:12;6.27;;;5.13;;
8293;SDS011;4185;41.506;24.938;2022-07-23T07:46:38;7.87;;;5.20;;
8293;SDS011;4185;41.506;24.938;2022-07-23T07:49:05;8.37;;;5.20;;
8293;SDS011;4185;41.506;24.938;2022-07-23T07:51:32;7.20;;;5.07;;
8293;SDS011;4185;41.506;24.938;2022-07-23T07:53:59;9.27;;;5.40;;
8293;SDS011;4185;41.506;24.938;2022-07-23T07:56:26;12.77;;;5.97;;
8293;SDS011;4185;41.506;24.938;2022-07-23T07:58:54;6.80;;;4.90;;
8293;SDS011;4185;41.506;24.938;2022-07-23T08:01:21;8.50;;;5.40;;
8293;SDS011;4185;41.506;24.938;2022-07-23T08:03:48;6.77;;;5.53;;
8293;SDS011;4185;41.506;24.938;2022-07-23T08:06:15;9.30;;;5.20;;
8293;SDS011;4185;41.506;24.938;2022-07-23T08:08:42;8.67;;;5.97;;
8293;SDS011;4185;41.506;24.938;2022-07-23T08:11:09;9.33;;;5.60;;
8293;SDS011;4185;41.506;24.938;2022-07-23T08:13:36;7.97;;;5.43;;
8293;SDS011;4185;41.506;24.938;2022-07-23T08:16:04;8.73;;;5.50;;
8293;SDS011;4185;41.506;24.938;2022-07-23T08:18:31;7.30;;;5.07;;
8293;SDS011;4185;41.506;24.938;2022-07-23T08:20:58;7.82;;;5.60;;
8293;SDS011;4185;41.506;24.938;2022-07-23T08:23:25;9.07;;;4.65;;
8293;SDS011;4185;41.506;24.938;2022-07-23T08:25:52;20.33;;;6.85;;
8293;SDS011;4185;41.506;24.938;2022-07-23T08:28:19;8.98;;;5.07;;
8293;SDS011;4185;41.506;24.938;2022-07-23T08:30:46;7.15;;;5.40;;
8293;SDS011;4185;41.506;24.938;2022-07-23T08:33:15;8.23;;;5.25;;
8293;SDS011;4185;41.506;24.938;2022-07-23T08:35:43;5.28;;;4.70;;
8293;SDS011;4185;41.506;24.938;2022-07-23T08:38:13;8.95;;;4.80;;
8293;SDS011;4185;41.506;24.938;2022-07-23T08:40:41;5.60;;;4.45;;
8293;SDS011;4185;41.506;24.938;2022-07-23T08:43:10;9.13;;;4.70;;
8293;SDS011;4185;41.506;24.938;2022-07-23T08:45:39;7.63;;;4.90;;
8293;SDS011;4185;41.506;24.938;2022-07-23T08:48:08;6.55;;;4.63;;
8293;SDS011;4185;41.506;24.938;2022-07-23T08:50:39;7.75;;;4.25;;
8293;SDS011;4185;41.506;24.938;2022-07-23T08:53:09;8.07;;;5.28;;
8293;SDS011;4185;41.506;24.938;2022-07-23T08:55:36;6.75;;;4.43;;
8293;SDS011;4185;41.506;24.938;2022-07-23T08:58:03;6.28;;;4.60;;
8293;SDS011;4185;41.506;24.938;2022-07-23T09:00:30;5.75;;;4.25;;
8293;SDS011;4185;41.506;24.938;2022-07-23T09:02:57;5.93;;;4.45;;
8293;SDS011;4185;41.506;24.938;2022-07-23T09:05:24;5.15;;;3.78;;
8293;SDS011;4185;41.506;24.938;2022-07-23T09:08:08;5.97;;;4.53;;
8293;SDS011;4185;41.506;24.938;2022-07-23T09:10:43;6.03;;;4.07;;
8293;SDS011;4185;41.506;24.938;2022-07-23T09:13:28;6.03;;;3.90;;
8293;SDS011;4185;41.506;24.938;2022-07-23T09:15:58;7.93;;;4.60;;
8293;SDS011;4185;41.506;24.938;2022-07-23T09:18:31;7.40;;;4.53;;
8293;SDS011;4185;41.506;24.938;2022-07-23T09:21:06;6.35;;;4.20;;
8293;SDS011;4185;41.506;24.938;2022-07-23T09:23:39;5.20;;;3.97;;
8293;SDS011;4185;41.506;24.938;2022-07-23T09:26:23;7.50;;;4.90;;
8293;SDS011;4185;41.506;24.938;2022-07-23T09:28:57;6.30;;;4.20;;
8293;SDS011;4185;41.506;24.938;2022-07-23T09:31:43;6.43;;;4.28;;
8293;SDS011;4185;41.506;24.938;2022-07-23T09:34:14;6.93;;;4.40;;
8293;SDS011;4185;41.506;24.938;2022-07-23T09:36:43;11.68;;;4.22;;
8293;SDS011;4185;41.506;24.938;2022-07-23T09:39:11;6.95;;;4.18;;
8293;SDS011;4185;41.506;24.938;2022-07-23T09:41:40;6.22;;;4.60;;
8293;SDS011;4185;41.506;24.938;2022-07-23T09:44:10;5.07;;;4.47;;
8293;SDS011;4185;41.506;24.938;2022-07-23T09:46:42;5.15;;;4.22;;
8293;SDS011;4185;41.506;24.938;2022-07-23T09:49:11;8.35;;;4.68;;
8293;SDS011;4185;41.506;24.938;2022-07-23T09:51:43;5.45;;;4.47;;
8293;SDS011;4185;41.506;24.938;2022-07-23T09:54:23;5.45;;;4.75;;
8293;SDS011;4185;41.506;24.938;2022-07-23T09:56:56;5.68;;;4.00;;
8293;SDS011;4185;41.506;24.938;2022-07-23T09:59:25;6.65;;;4.47;;
8293;SDS011;4185;41.506;24.938;2022-07-23T10:01:54;11.15;;;5.00;;
8293;SDS011;4185;41.506;24.938;2022-07-23T10:04:24;4.78;;;4.13;;
8293;SDS011;4185;41.506;24.938;2022-07-23T10:06:52;5.80;;;4.53;;
8293;SDS011;4185;41.506;24.938;2022-07-23T10:09:23;5.95;;;3.90;;
8293;SDS011;4185;41.506;24.938;2022-07-23T10:11:53;5.78;;;4.00;;
8293;SDS011;4185;41.506;24.938;2022-07-23T10:14:26;8.88;;;4.85;;
8293;SDS011;4185;41.506;24.938;2022-07-23T10:16:54;6.90;;;4.47;;
8293;SDS011;4185;41.506;24.938;2022-07-23T10:19:21;7.97;;;4.25;;
8293;SDS011;4185;41.506;24.938;2022-07-23T10:21:49;10.68;;;4.43;;
8293;SDS011;4185;41.506;24.938;2022-07-23T10:24:22;13.23;;;9.30;;
8293;SDS011;4185;41.506;24.938;2022-07-23T10:27:05;5.78;;;5.20;;
8293;SDS011;4185;41.506;24.938;2022-07-23T10:29:46;9.45;;;5.07;;
8293;SDS011;4185;41.506;24.938;2022-07-23T10:34:55;7.18;;;4.30;;
8293;SDS011;4185;41.506;24.938;2022-07-23T10:37:31;11.95;;;5.20;;
8293;SDS011;4185;41.506;24.938;2022-07-23T10:40:13;5.60;;;4.07;;
8293;SDS011;4185;41.506;24.938;2022-07-23T10:42:42;9.35;;;4.45;;
8293;SDS011;4185;41.506;24.938;2022-07-23T10:45:23;6.85;;;4.65;;
8293;SDS011;4185;41.506;24.938;2022-07-23T10:48:13;9.63;;;6.15;;
8293;SDS011;4185;41.506;24.938;2022-07-23T10:50:41;5.15;;;4.28;;
8293;SDS011;4185;41.506;24.938;2022-07-23T10:53:10;8.68;;;4.50;;
8293;SDS011;4185;41.506;24.938;2022-07-23T10:55:43;9.65;;;5.00;;
8293;SDS011;4185;41.506;24.938;2022-07-23T10:58:17;7.82;;;4.35;;
8293;SDS011;4185;41.506;24.938;2022-07-23T11:00:48;8.52;;;4.88;;
8293;SDS011;4185;41.506;24.938;2022-07-23T11:03:32;7.68;;;4.50;;
8293;SDS011;4185;41.506;24.938;2022-07-23T11:06:01;7.88;;;5.75;;
8293;SDS011;4185;41.506;24.938;2022-07-23T11:08:29;8.57;;;4.45;;
8293;SDS011;4185;41.506;24.938;2022-07-23T11:11:08;5.00;;;4.07;;
8293;SDS011;4185;41.506;24.938;2022-07-23T11:16:22;6.20;;;4.50;;
8293;SDS011;4185;41.506;24.938;2022-07-23T11:18:53;6.40;;;4.55;;
8293;SDS011;4185;41.506;24.938;2022-07-23T11:21:40;9.35;;;4.65;;
8293;SDS011;4185;41.506;24.938;2022-07-23T11:24:12;9.93;;;4.55;;
8293;SDS011;4185;41.506;24.938;2022-07-23T11:26:45;10.13;;;4.65;;
8293;SDS011;4185;41.506;24.938;2022-07-23T11:32:24;7.68;;;4.65;;
8293;SDS011;4185;41.506;24.938;2022-07-23T11:34:55;14.02;;;5.03;;
8293;SDS011;4185;41.506;24.938;2022-07-23T11:37:35;6.97;;;4.53;;
8293;SDS011;4185;41.506;24.938;2022-07-23T11:40:05;6.60;;;4.60;;
8293;SDS011;4185;41.506;24.938;2022-07-23T11:42:37;6.85;;;4.15;;
8293;SDS011;4185;41.506;24.938;2022-07-23T11:45:06;9.55;;;4.25;;
8293;SDS011;4185;41.506;24.938;2022-07-23T11:47:34;8.60;;;4.30;;
8293;SDS011;4185;41.506;24.938;2022-07-23T11:50:02;9.80;;;4.60;;
8293;SDS011;4185;41.506;24.938;2022-07-23T11:52:31;12.55;;;4.85;;
8293;SDS011;4185;41.506;24.938;2022-07-23T11:54:59;5.43;;;4.10;;
8293;SDS011;4185;41.506;24.938;2022-07-23T11:57:27;8.68;;;4.13;;
8293;SDS011;4185;41.506;24.938;2022-07-23T11:59:57;8.63;;;4.40;;
8293;SDS011;4185;41.506;24.938;2022-07-23T12:02:31;6.68;;;4.22;;
8293;SDS011;4185;41.506;24.938;2022-07-23T12:04:58;6.82;;;4.63;;
8293;SDS011;4185;41.506;24.938;2022-07-23T12:07:26;9.63;;;4.88;;
8293;SDS011;4185;41.506;24.938;2022-07-23T12:09:55;7.72;;;4.28;;
8293;SDS011;4185;41.506;24.938;2022-07-23T12:12:23;10.60;;;4.60;;
8293;SDS011;4185;41.506;24.938;2022-07-23T12:14:50;5.43;;;4.07;;
8293;SDS011;4185;41.506;24.938;2022-07-23T12:17:20;5.38;;;4.50;;
8293;SDS011;4185;41.506;24.938;2022-07-23T12:19:53;8.70;;;4.55;;
8293;SDS011;4185;41.506;24.938;2022-07-23T12:22:21;7.15;;;4.10;;
8293;SDS011;4185;41.506;24.938;2022-07-23T12:24:52;9.27;;;4.50;;
8293;SDS011;4185;41.506;24.938;2022-07-23T12:27:20;9.25;;;4.78;;
8293;SDS011;4185;41.506;24.938;2022-07-23T12:29:47;9.00;;;4.72;;
8293;SDS011;4185;41.506;24.938;2022-07-23T12:32:18;8.95;;;4.30;;
8293;SDS011;4185;41.506;24.938;2022-07-23T12:34:48;7.75;;;4.00;;
8293;SDS011;4185;41.506;24.938;2022-07-23T12:37:30;9.70;;;4.63;;
8293;SDS011;4185;41.506;24.938;2022-07-23T12:39:58;9.75;;;4.47;;
8293;SDS011;4185;41.506;24.938;2022-07-23T12:42:44;5.90;;;4.05;;
8293;SDS011;4185;41.506;24.938;2022-07-23T12:45:12;6.80;;;4.20;;
8293;SDS011;4185;41.506;24.938;2022-07-23T12:50:43;7.18;;;4.15;;
8293;SDS011;4185;41.506;24.938;2022-07-23T12:53:16;11.35;;;4.30;;
8293;SDS011;4185;41.506;24.938;2022-07-23T12:55:46;9.38;;;4.20;;
8293;SDS011;4185;41.506;24.938;2022-07-23T12:58:15;7.47;;;4.07;;
8293;SDS011;4185;41.506;24.938;2022-07-23T13:00:55;7.93;;;4.22;;
8293;SDS011;4185;41.506;24.938;2022-07-23T13:03:26;7.18;;;3.80;;
8293;SDS011;4185;41.506;24.938;2022-07-23T13:05:59;7.13;;;4.15;;
8293;SDS011;4185;41.506;24.938;2022-07-23T13:08:28;10.68;;;4.97;;
8293;SDS011;4185;41.506;24.938;2022-07-23T13:10:56;10.10;;;4.57;;
8293;SDS011;4185;41.506;24.938;2022-07-23T13:13:24;11.20;;;4.43;;
8293;SDS011;4185;41.506;24.938;2022-07-23T13:15:53;8.90;;;4.40;;
8293;SDS011;4185;41.506;24.938;2022-07-23T13:18:21;11.35;;;4.88;;
8293;SDS011;4185;41.506;24.938;2022-07-23T13:20:49;6.40;;;4.18;;
8293;SDS011;4185;41.506;24.938;2022-07-23T13:23:16;9.30;;;4.20;;
8293;SDS011;4185;41.506;24.938;2022-07-23T13:25:44;9.63;;;3.97;;
8293;SDS011;4185;41.506;24.938;2022-07-23T13:28:12;9.15;;;4.82;;
8293;SDS011;4185;41.506;24.938;2022-07-23T13:30:39;10.02;;;4.57;;
8293;SDS011;4185;41.506;24.938;2022-07-23T13:33:07;9.57;;;4.70;;
8293;SDS011;4185;41.506;24.938;2022-07-23T13:35:34;6.35;;;4.25;;
8293;SDS011;4185;41.506;24.938;2022-07-23T13:38:04;8.50;;;5.20;;
8293;SDS011;4185;41.506;24.938;2022-07-23T13:40:33;10.85;;;4.75;;
8293;SDS011;4185;41.506;24.938;2022-07-23T13:43:01;7.05;;;4.32;;
8293;SDS011;4185;41.506;24.938;2022-07-23T13:45:28;13.00;;;4.60;;
8293;SDS011;4185;41.506;24.938;2022-07-23T13:47:55;11.15;;;4.80;;
8293;SDS011;4185;41.506;24.938;2022-07-23T13:50:21;11.75;;;5.13;;
8293;SDS011;4185;41.506;24.938;2022-07-23T13:52:48;8.45;;;4.60;;
8293;SDS011;4185;41.506;24.938;2022-07-23T13:55:17;10.45;;;4.75;;
8293;SDS011;4185;41.506;24.938;2022-07-23T13:57:44;10.25;;;4.63;;
8293;SDS011;4185;41.506;24.938;2022-07-23T14:00:11;8.73;;;4.55;;
8293;SDS011;4185;41.506;24.938;2022-07-23T14:02:39;10.15;;;4.25;;
8293;SDS011;4185;41.506;24.938;2022-07-23T14:05:07;8.60;;;4.72;;
8293;SDS011;4185;41.506;24.938;2022-07-23T14:07:36;6.82;;;4.38;;
8293;SDS011;4185;41.506;24.938;2022-07-23T14:10:04;8.52;;;4.65;;
8293;SDS011;4185;41.506;24.938;2022-07-23T14:12:34;8.30;;;4.28;;
8293;SDS011;4185;41.506;24.938;2022-07-23T14:15:01;5.88;;;4.40;;
8293;SDS011;4185;41.506;24.938;2022-07-23T14:17:29;5.82;;;4.05;;
8293;SDS011;4185;41.506;24.938;2022-07-23T14:19:56;8.65;;;4.22;;
8293;SDS011;4185;41.506;24.938;2022-07-23T14:22:26;6.18;;;4.50;;
8293;SDS011;4185;41.506;24.938;2022-07-23T14:24:53;8.98;;;4.25;;
8293;SDS011;4185;41.506;24.938;2022-07-23T14:27:20;10.45;;;4.35;;
8293;SDS011;4185;41.506;24.938;2022-07-23T14:29:48;8.43;;;4.72;;
8293;SDS011;4185;41.506;24.938;2022-07-23T14:32:15;14.55;;;5.43;;
8293;SDS011;4185;41.506;24.938;2022-07-23T14:34:42;9.77;;;4.85;;
8293;SDS011;4185;41.506;24.938;2022-07-23T14:37:09;10.93;;;4.40;;
8293;SDS011;4185;41.506;24.938;2022-07-23T14:39:36;12.35;;;4.72;;
8293;SDS011;4185;41.506;24.938;2022-07-23T14:42:04;13.45;;;4.90;;
8293;SDS011;4185;41.506;24.938;2022-07-23T14:44:31;10.48;;;4.75;;
8293;SDS011;4185;41.506;24.938;2022-07-23T14:47:01;7.88;;;4.10;;
8293;SDS011;4185;41.506;24.938;2022-07-23T14:49:29;10.77;;;4.47;;
8293;SDS011;4185;41.506;24.938;2022-07-23T14:52:00;9.00;;;5.25;;
8293;SDS011;4185;41.506;24.938;2022-07-23T14:54:29;9.50;;;4.78;;
8293;SDS011;4185;41.506;24.938;2022-07-23T14:56:57;9.18;;;4.93;;
8293;SDS011;4185;41.506;24.938;2022-07-23T14:59:28;9.55;;;4.68;;
8293;SDS011;4185;41.506;24.938;2022-07-23T15:01:57;11.48;;;4.30;;
8293;SDS011;4185;41.506;24.938;2022-07-23T15:04:26;6.28;;;4.07;;
8293;SDS011;4185;41.506;24.938;2022-07-23T15:06:57;7.38;;;4.70;;
8293;SDS011;4185;41.506;24.938;2022-07-23T15:09:24;12.25;;;4.88;;
8293;SDS011;4185;41.506;24.938;2022-07-23T15:11:52;9.70;;;4.85;;
8293;SDS011;4185;41.506;24.938;2022-07-23T15:14:19;10.88;;;4.93;;
8293;SDS011;4185;41.506;24.938;2022-07-23T15:16:47;11.18;;;5.15;;